createdAt,value
2019-01-16T00:00:04.566Z,99.90
2019-01-16T00:02:50.706Z,99.90
2019-01-16T00:05:49.880Z,99.90
2019-01-16T00:08:35.839Z,99.90
2019-01-16T00:11:18.273Z,99.90
2019-01-16T00:14:03.649Z,99.90
2019-01-16T00:17:09.688Z,99.90
2019-01-16T00:19:55.161Z,99.90
2019-01-16T00:22:47.785Z,99.90
2019-01-16T00:25:33.979Z,99.90
2019-01-16T00:28:17.410Z,99.90
2019-01-16T00:31:04.567Z,99.90
2019-01-16T00:33:57.601Z,99.90
2019-01-16T00:36:47.216Z,99.90
2019-01-16T00:39:34.394Z,99.90
2019-01-16T00:42:38.687Z,99.90
2019-01-16T00:45:40.798Z,99.90
2019-01-16T00:48:40.099Z,99.90
2019-01-16T00:51:33.055Z,99.90
2019-01-16T00:54:20.035Z,99.90
2019-01-16T00:56:59.907Z,99.90
2019-01-16T00:59:45.004Z,99.90
2019-01-16T01:02:31.044Z,99.90
2019-01-16T01:05:27.164Z,99.90
2019-01-16T01:08:14.248Z,99.90
2019-01-16T01:10:51.673Z,99.90
2019-01-16T01:13:47.931Z,99.90
2019-01-16T01:16:23.679Z,99.90
2019-01-16T01:19:02.777Z,99.90
2019-01-16T01:21:49.790Z,99.90
2019-01-16T01:24:36.864Z,99.90
2019-01-16T01:27:22.550Z,99.90
2019-01-16T01:30:00.592Z,99.90
2019-01-16T01:32:39.043Z,99.90
2019-01-16T01:35:35.070Z,99.90
2019-01-16T01:38:29.534Z,99.90
2019-01-16T01:41:19.133Z,99.90
2019-01-16T01:44:08.846Z,99.90
2019-01-16T01:47:02.115Z,99.90
2019-01-16T01:49:58.626Z,99.90
2019-01-16T01:52:48.216Z,99.90
2019-01-16T01:55:34.568Z,99.90
2019-01-16T01:58:20.491Z,99.90
2019-01-16T02:01:13.436Z,99.90
2019-01-16T02:04:06.527Z,99.90
2019-01-16T02:06:52.340Z,99.90
2019-01-16T02:09:33.092Z,99.90
2019-01-16T02:12:25.705Z,99.90
2019-01-16T02:15:24.195Z,99.90
2019-01-16T02:18:11.276Z,99.90
2019-01-16T02:20:48.792Z,99.90
2019-01-16T02:23:38.327Z,99.90
2019-01-16T02:26:23.843Z,99.90
2019-01-16T02:29:21.990Z,99.90
2019-01-16T02:32:18.164Z,99.90
2019-01-16T02:34:55.073Z,99.90
2019-01-16T02:37:40.323Z,99.90
2019-01-16T02:40:18.942Z,99.90
2019-01-16T02:43:01.246Z,99.90
2019-01-16T02:45:54.786Z,99.90
2019-01-16T02:48:32.356Z,99.90
2019-01-16T02:51:31.271Z,99.90
2019-01-16T02:54:16.737Z,99.90
2019-01-16T02:56:56.128Z,99.90
2019-01-16T02:59:36.082Z,99.90
2019-01-16T03:02:13.331Z,99.90
2019-01-16T03:05:01.608Z,99.90
2019-01-16T03:07:40.901Z,99.90
2019-01-16T03:10:37.035Z,99.90
2019-01-16T03:13:22.384Z,99.90
2019-01-16T03:16:07.507Z,99.90
2019-01-16T03:18:55.208Z,99.90
2019-01-16T03:21:45.533Z,99.90
2019-01-16T03:24:35.396Z,99.90
2019-01-16T03:27:37.838Z,99.90
2019-01-16T03:30:30.915Z,99.90
2019-01-16T03:33:30.395Z,99.90
2019-01-16T03:36:10.027Z,99.90
2019-01-16T03:39:03.071Z,99.90
2019-01-16T03:42:01.826Z,99.90
2019-01-16T03:44:46.224Z,99.90
2019-01-16T03:47:42.169Z,99.90
2019-01-16T03:50:35.302Z,99.90
2019-01-16T03:53:22.503Z,99.90
2019-01-16T03:56:15.671Z,99.90
2019-01-16T03:58:55.463Z,99.90
2019-01-16T04:01:51.988Z,99.90
2019-01-16T04:04:39.089Z,99.90
2019-01-16T04:07:26.436Z,99.90
2019-01-16T04:10:12.387Z,99.90
2019-01-16T04:12:56.804Z,99.90
2019-01-16T04:15:35.553Z,99.90
2019-01-16T04:18:40.339Z,99.90
2019-01-16T04:21:21.246Z,99.90
2019-01-16T04:24:02.915Z,99.90
2019-01-16T04:26:38.854Z,99.90
2019-01-16T04:29:24.829Z,99.90
2019-01-16T04:32:11.917Z,99.90
2019-01-16T04:35:05.092Z,99.90
2019-01-16T04:37:42.606Z,99.90
2019-01-16T04:40:18.724Z,99.90
2019-01-16T04:43:14.278Z,99.90
2019-01-16T04:46:01.216Z,99.90
2019-01-16T04:48:44.387Z,99.90
2019-01-16T04:51:23.129Z,99.90
2019-01-16T04:54:16.108Z,99.90
2019-01-16T04:57:01.845Z,99.90
2019-01-16T04:59:48.957Z,99.90
2019-01-16T05:02:53.745Z,99.90
2019-01-16T05:05:39.680Z,99.90
2019-01-16T05:08:21.545Z,99.90
2019-01-16T05:11:11.904Z,99.90
2019-01-16T05:13:57.557Z,99.90
2019-01-16T05:16:52.617Z,99.90
2019-01-16T05:19:39.707Z,99.90
2019-01-16T05:22:29.650Z,99.90
2019-01-16T05:25:05.996Z,99.90
2019-01-16T05:27:55.611Z,99.90
2019-01-16T05:30:51.370Z,99.90
2019-01-16T05:33:28.569Z,99.90
2019-01-16T05:36:18.521Z,99.90
2019-01-16T05:39:05.117Z,99.90
2019-01-16T05:41:54.820Z,99.90
2019-01-16T05:44:40.521Z,99.90
2019-01-16T05:47:36.675Z,99.90
2019-01-16T05:50:24.151Z,99.90
2019-01-16T05:53:13.953Z,99.90
2019-01-16T05:56:01.293Z,99.90
2019-01-16T05:59:03.966Z,99.90
2019-01-16T06:02:00.277Z,99.90
2019-01-16T06:04:43.441Z,99.90
2019-01-16T06:07:29.061Z,99.90
2019-01-16T06:10:16.819Z,99.90
2019-01-16T06:13:19.004Z,99.90
2019-01-16T06:15:55.910Z,99.90
2019-01-16T06:18:41.962Z,99.90
2019-01-16T06:21:25.853Z,99.90
2019-01-16T06:24:12.804Z,99.90
2019-01-16T06:27:09.402Z,99.90
2019-01-16T06:29:58.940Z,99.90
2019-01-16T06:32:49.327Z,99.90
2019-01-16T06:35:25.832Z,99.90
2019-01-16T06:38:31.033Z,99.90
2019-01-16T06:41:18.439Z,99.90
2019-01-16T06:44:11.427Z,99.90
2019-01-16T06:46:57.429Z,99.90
2019-01-16T06:49:36.845Z,99.90
2019-01-16T06:52:20.706Z,99.90
2019-01-16T06:54:58.839Z,99.90
2019-01-16T06:57:55.241Z,99.90
2019-01-16T07:00:45.257Z,99.90
2019-01-16T07:03:36.125Z,99.90
2019-01-16T07:06:32.482Z,99.90
2019-01-16T07:09:25.663Z,99.90
2019-01-16T07:12:22.995Z,99.90
2019-01-16T07:15:13.791Z,99.90
2019-01-16T07:18:04.837Z,99.90
2019-01-16T07:20:45.865Z,99.90
2019-01-16T07:23:33.906Z,99.90
2019-01-16T07:26:18.124Z,99.90
2019-01-16T07:29:17.646Z,99.90
2019-01-16T07:32:20.649Z,99.90
2019-01-16T07:35:03.459Z,99.90
2019-01-16T07:37:50.346Z,99.90
2019-01-16T07:40:34.602Z,99.90
2019-01-16T07:43:32.869Z,99.90
2019-01-16T07:46:28.977Z,99.90
2019-01-16T07:49:14.446Z,99.90
2019-01-16T07:52:01.548Z,99.90
2019-01-16T07:54:47.501Z,99.90
2019-01-16T07:57:54.625Z,99.90
2019-01-16T08:00:51.660Z,99.90
2019-01-16T08:03:41.593Z,99.90
2019-01-16T08:06:20.238Z,99.90
2019-01-16T08:09:08.171Z,99.90
2019-01-16T08:12:04.099Z,99.90
2019-01-16T08:14:50.139Z,99.90
2019-01-16T08:17:52.450Z,99.90
2019-01-16T08:20:32.446Z,99.90
2019-01-16T08:23:22.272Z,99.90
2019-01-16T08:26:09.418Z,99.90
2019-01-16T08:29:03.969Z,99.90
2019-01-16T08:32:00.407Z,99.90
2019-01-16T08:34:56.359Z,99.80
2019-01-16T08:37:49.286Z,99.80
2019-01-16T08:40:39.528Z,99.70
2019-01-16T08:43:22.642Z,99.80
2019-01-16T08:46:08.156Z,99.80
2019-01-16T08:49:01.610Z,99.80
2019-01-16T08:51:51.386Z,99.80
2019-01-16T08:54:34.443Z,99.80
2019-01-16T08:57:27.282Z,99.70
2019-01-16T09:00:13.059Z,99.80
2019-01-16T09:03:08.986Z,99.80
2019-01-16T09:06:11.238Z,99.70
2019-01-16T09:08:59.021Z,99.60
2019-01-16T09:11:52.006Z,99.50
2019-01-16T09:14:37.747Z,99.60
2019-01-16T09:17:23.679Z,99.60
2019-01-16T09:20:20.119Z,99.70
2019-01-16T09:23:12.899Z,99.70
2019-01-16T09:26:00.005Z,99.60
2019-01-16T09:28:49.770Z,99.50
2019-01-16T09:31:45.606Z,99.20
2019-01-16T09:34:50.721Z,99.20
2019-01-16T09:37:40.350Z,99.10
2019-01-16T09:40:28.107Z,99.00
2019-01-16T09:43:21.623Z,99.10
2019-01-16T09:46:10.639Z,98.80
2019-01-16T09:49:03.938Z,98.70
2019-01-16T09:51:51.132Z,98.70
2019-01-16T09:54:53.166Z,98.60
2019-01-16T09:57:43.341Z,98.60
2019-01-16T10:00:45.069Z,98.70
2019-01-16T10:03:29.419Z,98.60
2019-01-16T10:06:20.137Z,98.60
2019-01-16T10:09:07.229Z,98.40
2019-01-16T10:11:55.652Z,98.20
2019-01-16T10:14:49.187Z,98.20
2019-01-16T10:17:40.477Z,98.30
2019-01-16T10:20:29.615Z,98.30
2019-01-16T10:23:25.946Z,98.40
2019-01-16T10:26:17.003Z,98.30
2019-01-16T10:29:02.844Z,98.30
2019-01-16T10:32:07.906Z,98.40
2019-01-16T10:35:04.015Z,98.30
2019-01-16T10:37:51.421Z,98.30
2019-01-16T10:40:47.169Z,98.30
2019-01-16T10:43:31.412Z,98.00
2019-01-16T10:46:28.756Z,97.90
2019-01-16T10:49:14.662Z,97.80
2019-01-16T10:52:04.537Z,97.80
2019-01-16T10:54:50.311Z,97.80
2019-01-16T10:57:36.443Z,97.90
2019-01-16T11:00:40.154Z,97.80
2019-01-16T11:03:34.002Z,97.70
2019-01-16T11:06:36.437Z,97.80
2019-01-16T11:09:22.375Z,97.80
2019-01-16T11:12:09.416Z,97.80
2019-01-16T11:14:56.923Z,97.70
2019-01-16T11:17:38.666Z,97.70
2019-01-16T11:20:32.589Z,97.70
2019-01-16T11:23:19.002Z,97.60
2019-01-16T11:26:09.295Z,97.50
2019-01-16T11:28:55.186Z,97.50
2019-01-16T11:31:40.955Z,97.40
2019-01-16T11:34:26.566Z,97.50
2019-01-16T11:37:13.807Z,97.80
2019-01-16T11:40:04.661Z,97.40
2019-01-16T11:42:38.858Z,97.50
2019-01-16T11:45:24.403Z,97.50
2019-01-16T11:48:10.377Z,97.40
2019-01-16T11:50:56.134Z,97.30
2019-01-16T11:53:43.366Z,97.30
2019-01-16T11:56:42.206Z,97.30
2019-01-16T11:59:33.947Z,97.30
2019-01-16T12:02:20.559Z,97.20
2019-01-16T12:05:10.961Z,97.10
2019-01-16T12:07:56.612Z,97.20
2019-01-16T12:10:56.191Z,97.20
2019-01-16T12:13:47.945Z,97.10
2019-01-16T12:16:41.200Z,97.10
2019-01-16T12:19:23.439Z,97.00
2019-01-16T12:22:09.058Z,97.00
2019-01-16T12:24:47.034Z,97.00
2019-01-16T12:27:34.171Z,96.90
2019-01-16T12:30:13.269Z,97.00
2019-01-16T12:33:12.662Z,97.10
2019-01-16T12:35:57.906Z,97.10
2019-01-16T12:38:33.006Z,97.00
2019-01-16T12:41:19.465Z,97.00
2019-01-16T12:44:05.363Z,96.90
2019-01-16T12:46:51.093Z,96.90
2019-01-16T12:49:37.550Z,96.90
2019-01-16T12:52:39.909Z,96.70
2019-01-16T12:55:28.093Z,96.80
2019-01-16T12:58:18.694Z,96.80
2019-01-16T13:01:13.567Z,96.80
2019-01-16T13:04:00.522Z,96.80
2019-01-16T13:06:54.481Z,97.10
2019-01-16T13:09:41.820Z,96.80
2019-01-16T13:12:18.571Z,96.70
2019-01-16T13:15:08.271Z,96.70
2019-01-16T13:17:54.710Z,96.80
2019-01-16T13:20:47.835Z,96.80
2019-01-16T13:23:34.956Z,96.80
2019-01-16T13:26:28.611Z,96.80
2019-01-16T13:29:18.796Z,96.90
2019-01-16T13:32:04.672Z,96.80
2019-01-16T13:34:51.061Z,96.80
2019-01-16T13:37:37.271Z,96.70
2019-01-16T13:40:25.770Z,96.80
2019-01-16T13:43:24.908Z,96.80
2019-01-16T13:46:24.243Z,96.60
2019-01-16T13:49:16.587Z,96.40
2019-01-16T13:52:04.988Z,96.30
2019-01-16T13:54:57.306Z,96.30
2019-01-16T13:57:43.493Z,96.20
2019-01-16T14:00:33.948Z,96.30
2019-01-16T14:03:30.100Z,96.40
2019-01-16T14:06:16.239Z,96.50
2019-01-16T14:09:03.744Z,96.40
2019-01-16T14:11:49.426Z,96.40
2019-01-16T14:14:35.722Z,96.30
2019-01-16T14:17:35.718Z,96.30
2019-01-16T14:20:25.042Z,96.40
2019-01-16T14:23:10.817Z,96.50
2019-01-16T14:26:06.985Z,96.40
2019-01-16T14:29:11.899Z,96.50
2019-01-16T14:32:00.700Z,96.40
2019-01-16T14:34:56.921Z,96.40
2019-01-16T14:37:36.106Z,96.20
2019-01-16T14:40:39.542Z,96.10
2019-01-16T14:43:25.000Z,96.10
2019-01-16T14:46:14.234Z,96.10
2019-01-16T14:48:51.431Z,96.10
2019-01-16T14:51:32.679Z,96.10
2019-01-16T14:54:25.517Z,96.00
2019-01-16T14:57:12.246Z,96.10
2019-01-16T14:59:59.353Z,96.10
2019-01-16T15:03:05.004Z,96.10
2019-01-16T15:05:58.779Z,96.10
2019-01-16T15:09:01.236Z,96.20
2019-01-16T15:11:46.750Z,96.40
2019-01-16T15:14:35.846Z,96.30
2019-01-16T15:17:13.133Z,96.40
2019-01-16T15:20:17.914Z,96.40
2019-01-16T15:22:57.161Z,96.30
2019-01-16T15:25:48.985Z,96.40
2019-01-16T15:28:39.299Z,96.40
2019-01-16T15:31:32.295Z,96.40
2019-01-16T15:34:10.768Z,96.30
2019-01-16T15:37:03.830Z,96.20
2019-01-16T15:40:12.449Z,96.30
2019-01-16T15:42:57.757Z,96.30
2019-01-16T15:45:43.264Z,96.30
2019-01-16T15:48:48.521Z,96.30
2019-01-16T15:51:46.313Z,96.20
2019-01-16T15:54:33.743Z,96.20
2019-01-16T15:57:22.228Z,96.10
2019-01-16T16:00:05.302Z,96.20
2019-01-16T16:02:51.625Z,96.30
2019-01-16T16:05:51.203Z,96.30
2019-01-16T16:08:44.332Z,96.40
2019-01-16T16:11:30.909Z,96.50
2019-01-16T16:14:18.005Z,96.80
2019-01-16T16:16:57.473Z,96.50
2019-01-16T16:19:49.268Z,96.40
2019-01-16T16:22:37.536Z,96.40
2019-01-16T16:25:34.274Z,96.40
2019-01-16T16:28:21.458Z,96.40
2019-01-16T16:31:06.879Z,96.40
2019-01-16T16:33:48.072Z,96.40
2019-01-16T16:36:33.171Z,96.50
2019-01-16T16:39:19.406Z,96.70
2019-01-16T16:42:06.795Z,96.80
2019-01-16T16:44:52.722Z,96.80
2019-01-16T16:47:39.519Z,97.30
2019-01-16T16:50:14.754Z,97.00
2019-01-16T16:53:17.142Z,97.10
2019-01-16T16:56:02.944Z,97.10
2019-01-16T16:58:54.422Z,97.20
2019-01-16T17:01:42.716Z,97.30
2019-01-16T17:04:42.139Z,97.30
2019-01-16T17:07:26.965Z,97.30
2019-01-16T17:10:20.656Z,97.30
2019-01-16T17:13:02.923Z,97.30
2019-01-16T17:16:08.136Z,97.40
2019-01-16T17:18:45.067Z,97.30
2019-01-16T17:21:44.041Z,97.30
2019-01-16T17:24:34.164Z,97.30
2019-01-16T17:27:13.553Z,97.30
2019-01-16T17:30:12.440Z,97.30
2019-01-16T17:32:57.856Z,97.30
2019-01-16T17:36:03.174Z,97.30
2019-01-16T17:38:49.462Z,97.30
2019-01-16T17:41:45.844Z,97.30
2019-01-16T17:44:31.903Z,97.30
2019-01-16T17:47:26.520Z,97.40
2019-01-16T17:50:19.416Z,97.40
2019-01-16T17:53:09.387Z,97.40
2019-01-16T17:55:49.680Z,97.40
2019-01-16T17:58:48.769Z,97.40
2019-01-16T18:01:47.022Z,97.30
2019-01-16T18:04:46.383Z,97.30
2019-01-16T18:07:25.363Z,97.20
2019-01-16T18:10:10.597Z,97.20
2019-01-16T18:12:54.126Z,97.10
2019-01-16T18:15:41.113Z,97.00
2019-01-16T18:18:34.466Z,96.90
2019-01-16T18:21:20.565Z,96.80
2019-01-16T18:24:15.149Z,96.80
2019-01-16T18:27:01.021Z,97.00
2019-01-16T18:29:47.525Z,96.90
2019-01-16T18:32:40.916Z,96.80
2019-01-16T18:35:43.445Z,96.60
2019-01-16T18:38:29.068Z,96.50
2019-01-16T18:41:05.846Z,96.50
2019-01-16T18:43:51.603Z,96.60
2019-01-16T18:46:44.926Z,96.50
2019-01-16T18:49:37.462Z,96.50
2019-01-16T18:52:24.546Z,96.50
2019-01-16T18:55:21.085Z,96.50
2019-01-16T18:58:23.996Z,96.50
2019-01-16T19:01:23.363Z,96.50
2019-01-16T19:04:01.057Z,96.60
2019-01-16T19:06:46.983Z,96.50
2019-01-16T19:09:33.327Z,96.60
2019-01-16T19:12:29.490Z,96.60
2019-01-16T19:15:34.885Z,96.50
2019-01-16T19:18:22.164Z,96.40
2019-01-16T19:21:12.264Z,96.40
2019-01-16T19:24:11.452Z,96.20
2019-01-16T19:26:47.944Z,96.20
2019-01-16T19:29:41.541Z,96.20
2019-01-16T19:32:27.671Z,96.10
2019-01-16T19:35:15.480Z,96.10
2019-01-16T19:38:14.880Z,96.10
2019-01-16T19:41:00.837Z,96.00
2019-01-16T19:43:46.864Z,95.90
2019-01-16T19:46:33.470Z,95.80
2019-01-16T19:49:29.955Z,95.80
2019-01-16T19:52:32.960Z,95.80
2019-01-16T19:55:26.232Z,95.70
2019-01-16T19:58:17.372Z,95.60
2019-01-16T20:01:10.972Z,95.60
2019-01-16T20:04:04.549Z,95.50
2019-01-16T20:06:55.519Z,95.50
2019-01-16T20:09:46.432Z,95.50
2019-01-16T20:12:40.256Z,95.50
2019-01-16T20:15:37.223Z,95.60
2019-01-16T20:18:29.250Z,95.70
2019-01-16T20:21:16.244Z,95.80
2019-01-16T20:23:57.135Z,95.80
2019-01-16T20:26:37.558Z,95.80
2019-01-16T20:29:17.224Z,95.80
2019-01-16T20:32:02.841Z,95.80
2019-01-16T20:34:53.077Z,95.90
2019-01-16T20:37:31.379Z,95.90
2019-01-16T20:40:21.675Z,95.90
2019-01-16T20:43:15.283Z,95.90
2019-01-16T20:46:01.693Z,96.00
2019-01-16T20:48:47.815Z,96.30
2019-01-16T20:51:41.074Z,96.10
2019-01-16T20:54:27.323Z,96.20
2019-01-16T20:57:08.195Z,96.20
2019-01-16T21:00:01.632Z,96.30
2019-01-16T21:02:52.320Z,96.20
2019-01-16T21:05:34.866Z,96.30
2019-01-16T21:08:30.989Z,96.40
2019-01-16T21:11:17.145Z,96.50
2019-01-16T21:14:08.273Z,96.50
2019-01-16T21:16:54.969Z,96.50
2019-01-16T21:19:37.928Z,96.60
2019-01-16T21:22:42.568Z,96.60
2019-01-16T21:25:19.913Z,96.90
2019-01-16T21:28:16.862Z,96.70
2019-01-16T21:31:01.521Z,96.70
2019-01-16T21:33:49.528Z,96.70
2019-01-16T21:36:42.703Z,96.70
2019-01-16T21:39:36.072Z,96.80
2019-01-16T21:42:22.151Z,96.80
2019-01-16T21:45:11.776Z,96.90
2019-01-16T21:47:53.013Z,96.90
2019-01-16T21:50:38.790Z,96.90
2019-01-16T21:53:32.120Z,96.90
2019-01-16T21:56:25.389Z,97.00
2019-01-16T21:59:08.130Z,97.00
2019-01-16T22:01:55.891Z,97.00
2019-01-16T22:04:49.007Z,97.00
2019-01-16T22:07:42.146Z,97.00
2019-01-16T22:10:28.384Z,97.10
2019-01-16T22:13:09.559Z,97.20
2019-01-16T22:15:47.967Z,97.20
2019-01-16T22:18:36.065Z,97.30
2019-01-16T22:21:14.314Z,97.20
2019-01-16T22:24:00.424Z,97.20
2019-01-16T22:26:41.817Z,97.30
2019-01-16T22:29:31.706Z,97.40
2019-01-16T22:32:19.415Z,97.40
2019-01-16T22:35:05.232Z,97.70
2019-01-16T22:37:48.959Z,97.80
2019-01-16T22:40:31.798Z,97.60
2019-01-16T22:43:18.459Z,97.60
2019-01-16T22:46:00.489Z,97.70
2019-01-16T22:48:54.406Z,97.70
2019-01-16T22:51:42.046Z,97.80
2019-01-16T22:54:41.148Z,97.90
2019-01-16T22:57:28.654Z,98.00
2019-01-16T23:00:14.870Z,98.40
2019-01-16T23:02:53.667Z,98.70
2019-01-16T23:05:58.715Z,98.90
2019-01-16T23:08:44.426Z,99.00
2019-01-16T23:11:30.067Z,99.30
2019-01-16T23:14:16.393Z,99.70
2019-01-16T23:17:15.444Z,99.90
2019-01-16T23:20:03.210Z,99.90
2019-01-16T23:22:45.295Z,99.90
2019-01-16T23:25:42.633Z,99.90
2019-01-16T23:28:48.024Z,99.90
2019-01-16T23:31:34.052Z,99.90
2019-01-16T23:34:30.724Z,99.90
2019-01-16T23:37:10.617Z,99.90
2019-01-16T23:40:06.979Z,99.90
2019-01-16T23:43:02.869Z,99.90
2019-01-16T23:45:41.584Z,99.90
2019-01-16T23:48:40.871Z,99.90
2019-01-16T23:51:22.179Z,99.90
2019-01-16T23:54:08.330Z,99.90
2019-01-16T23:57:04.860Z,99.90
2019-01-16T23:59:51.896Z,99.90
